Napoli Jet — IQTJ — position and weather

sailwx.info

Track history (hours):
 
Tides and Currents Weather Stations Pressure Air Temp Water Temp Dewpoint Dewpoint Depression Visibility Wind Speed Wind Dir Waves Ship Positions

Napoli Jet

Last reported at 2014-Nov-14 10:13 UTC. Time now 2014-Dec-21 20:07 UTC.
Position N 40°50' E 014°17'.
Warning: this ship's position is 37 days out of date.

Length 41 m; draft 1.3 m.

Type: Ship. MMSI: 247051400.

Date/timePositionNaut miles runAvg speedWind from/ knotsBaromVisibWave heightAir tempDewpointWater temp
2014-Nov-14 10:13N 40°50' E 014°17'1218.4
2014-Nov-14 09:34N 40°46' E 014°02'4 4.1
2014-Nov-14 08:33N 40°45' E 013°56'2 1.9
2014-Nov-14 07:34N 40°46' E 013°58'1511.1
2014-Nov-14 06:15N 40°50' E 014°17'1217.9
2014-Nov-14 05:34N 40°46' E 014°01'4 4.1
2014-Nov-14 04:34N 40°45' E 013°56'0 0.0
2014-Nov-13 19:22N 40°45' E 013°56'0 0.1
2014-Nov-13 18:33N 40°45' E 013°56'1514.8
2014-Nov-13 17:33N 40°49' E 014°15'2 0.5
2014-Nov-13 14:20N 40°50' E 014°16'1620.7
2014-Nov-13 13:33N 40°45' E 013°56'1110.8
2014-Nov-13 12:34N 40°47' E 014°10'6 2.4
2014-Nov-13 10:14N 40°50' E 014°17'1217.9
2014-Nov-13 09:34N 40°46' E 014°02'4 4.2
2014-Nov-13 08:34N 40°45' E 013°56'2 2.3
2014-Nov-13 07:34N 40°46' E 013°59'1410.4
2014-Nov-13 06:14N 40°50' E 014°16'1217.7
2014-Nov-13 05:34N 40°46' E 014°01'4 0.4
2014-Nov-12 19:14N 40°45' E 013°56'0 0.1
2014-Nov-12 18:33N 40°45' E 013°56'1313.1
2014-Nov-12 17:33N 40°47' E 014°13'4 1.1
2014-Nov-12 14:29N 40°50' E 014°16'1617.0
2014-Nov-12 13:34N 40°45' E 013°57'1111.1
2014-Nov-12 12:34N 40°47' E 014°11'5 2.3
2014-Nov-12 10:16N 40°50' E 014°16'1216.7
2014-Nov-12 09:33N 40°46' E 014°02'4 4.3
2014-Nov-12 08:33N 40°45' E 013°56'0 0.0
2014-Nov-12 07:33N 40°45' E 013°56'0 0.0
2014-Nov-12 06:33N 40°45' E 013°56'0 0.0
2014-Nov-12 05:33N 40°45' E 013°56'0 0.0
2014-Nov-11 18:33N 40°45' E 013°56'0 0.0
2014-Nov-11 17:33N 40°45' E 013°56'0 0.0
2014-Nov-11 16:33N 40°45' E 013°56'0 0.0
2014-Nov-11 15:33N 40°45' E 013°56'0 0.0
2014-Nov-11 14:33N 40°45' E 013°56'0 0.0
2014-Nov-11 13:33N 40°45' E 013°56'1111.4
2014-Nov-11 12:34N 40°47' E 014°11'5 2.2
2014-Nov-11 10:14N 40°50' E 014°17'1218.0
2014-Nov-11 09:34N 40°46' E 014°02'4 4.2
2014-Nov-11 08:34N 40°45' E 013°56'2 2.0
2014-Nov-11 07:34N 40°46' E 013°59'1411.8
2014-Nov-11 06:20N 40°50' E 014°17'1316.8
2014-Nov-11 05:34N 40°46' E 014°00'3 0.3
2014-Nov-10 19:21N 40°45' E 013°56'0 0.0
2014-Nov-10 18:33N 40°45' E 013°56'1413.5
2014-Nov-10 17:33N 40°48' E 014°14'3 0.9
2014-Nov-10 14:31N 40°50' E 014°16'1616.4
2014-Nov-10 13:34N 40°45' E 013°56'1212.4
2014-Nov-10 12:33N 40°47' E 014°12'4 1.8
2014-Nov-10 10:13N 40°50' E 014°17'1218.3
2014-Nov-10 09:34N 40°46' E 014°02'4 4.2
2014-Nov-10 08:34N 40°45' E 013°56'2 2.0
2014-Nov-10 07:34N 40°46' E 013°59'1411.0
2014-Nov-10 06:15N 40°50' E 014°17'1318.4
2014-Nov-10 05:34N 40°46' E 014°01'4 0.3
2014-Nov-09 18:34N 40°45' E 013°56'1312.9
2014-Nov-09 17:33N 40°47' E 014°13'4 1.2
2014-Nov-09 14:28N 40°50' E 014°17'1617.8
2014-Nov-09 13:34N 40°45' E 013°56'1211.5
2014-Nov-09 12:33N 40°47' E 014°11'5 2.1
2014-Nov-09 10:14N 40°50' E 014°16'1217.6
2014-Nov-09 09:34N 40°46' E 014°02'4 4.1
2014-Nov-09 08:33N 40°45' E 013°56'2 0.1
2014-Nov-08 07:34N 40°46' E 013°59'1411.0
2014-Nov-08 06:15N 40°49' E 014°17'1217.4
2014-Nov-08 05:33N 40°46' E 014°02'4 0.4
2014-Nov-07 18:22N 40°45' E 013°56'0 0.0
2014-Nov-07 17:33N 40°45' E 013°56'0 0.0
2014-Nov-07 16:33N 40°45' E 013°56'0 0.0
2014-Nov-07 15:33N 40°45' E 013°56'0 0.0
2014-Nov-07 14:33N 40°45' E 013°56'0 0.0
2014-Nov-07 13:33N 40°45' E 013°56'0 0.0
2014-Nov-07 12:33N 40°45' E 013°56'0 0.0
2014-Nov-07 11:33N 40°45' E 013°56'0 0.0
2014-Nov-07 10:33N 40°45' E 013°56'0 0.0
2014-Nov-07 09:33N 40°45' E 013°56'0 0.0
2014-Nov-07 08:33N 40°45' E 013°56'0 0.0
2014-Nov-07 07:33N 40°45' E 013°56'0 0.0
2014-Nov-07 06:33N 40°45' E 013°56'0 0.0
2014-Nov-07 05:33N 40°45' E 013°56'0 0.0
2014-Nov-06 17:34N 40°45' E 013°56'0 0.0
2014-Nov-06 16:33N 40°45' E 013°56'0 0.0
2014-Nov-06 15:33N 40°45' E 013°56'0 0.0
2014-Nov-06 14:33N 40°45' E 013°56'0 0.0
2014-Nov-06 13:33N 40°45' E 013°56'0 0.0
2014-Nov-06 12:33N 40°45' E 013°56'0 0.0
2014-Nov-06 11:34N 40°45' E 013°56'0 0.0
2014-Nov-06 10:33N 40°45' E 013°56'0 0.0
2014-Nov-06 09:33N 40°45' E 013°56'0 0.0
2014-Nov-06 08:33N 40°45' E 013°56'4 4.2
2014-Nov-06 07:33N 40°46' E 014°02'12 9.2
2014-Nov-06 06:16N 40°50' E 014°17'1217.5
2014-Nov-06 05:34N 40°46' E 014°01'4 0.3
2014-Nov-05 17:34N 40°45' E 013°56'0 0.0
2014-Nov-05 16:33N 40°45' E 013°56'0 0.0
2014-Nov-05 15:34N 40°45' E 013°56'0 0.0
2014-Nov-05 14:34N 40°45' E 013°56'0 0.0
2014-Nov-05 13:34N 40°45' E 013°56'0 0.0
2014-Nov-05 12:33N 40°45' E 013°56'0 0.0
2014-Nov-05 11:34N 40°45' E 013°56'0 0.0
2014-Nov-05 10:34N 40°45' E 013°56'0 0.0
2014-Nov-05 09:34N 40°45' E 013°56'0 0.0
2014-Nov-05 08:34N 40°45' E 013°56'0 0.0
2014-Nov-05 07:34N 40°45' E 013°56'0 0.0
2014-Nov-05 06:33N 40°45' E 013°56'0 0.0
2014-Nov-05 05:34N 40°45' E 013°56'0 0.0
2014-Nov-04 12:03N 40°45' E 013°56'0 0.0
2014-Nov-04 11:33N 40°45' E 013°56'0 0.0
2014-Nov-04 10:33N 40°45' E 013°56'  
Track history (hours):
 
Tides and Currents Weather Stations Pressure Air Temp Water Temp Dewpoint Dewpoint Depression Visibility Wind Speed Wind Dir Waves Ship Positions

Napoli Jet

Last reported at 2014-Nov-14 10:13 UTC. Time now 2014-Dec-21 20:07 UTC.
Position N 40°50' E 014°17'.
Warning: this ship's position is 37 days out of date.

Length 41 m; draft 1.3 m.

Type: Ship. MMSI: 247051400.

Date/timePositionNaut miles runAvg speedWind from/ knotsBaromVisibWave heightAir tempDewpointWater temp
2014-Nov-14 10:13N 40°50' E 014°17'1218.4
2014-Nov-14 09:34N 40°46' E 014°02'4 4.1
2014-Nov-14 08:33N 40°45' E 013°56'2 1.9
2014-Nov-14 07:34N 40°46' E 013°58'1511.1
2014-Nov-14 06:15N 40°50' E 014°17'1217.9
2014-Nov-14 05:34N 40°46' E 014°01'4 4.1
2014-Nov-14 04:34N 40°45' E 013°56'0 0.0
2014-Nov-13 19:22N 40°45' E 013°56'0 0.1
2014-Nov-13 18:33N 40°45' E 013°56'1514.8
2014-Nov-13 17:33N 40°49' E 014°15'2 0.5
2014-Nov-13 14:20N 40°50' E 014°16'1620.7
2014-Nov-13 13:33N 40°45' E 013°56'1110.8
2014-Nov-13 12:34N 40°47' E 014°10'6 2.4
2014-Nov-13 10:14N 40°50' E 014°17'1217.9
2014-Nov-13 09:34N 40°46' E 014°02'4 4.2
2014-Nov-13 08:34N 40°45' E 013°56'2 2.3
2014-Nov-13 07:34N 40°46' E 013°59'1410.4
2014-Nov-13 06:14N 40°50' E 014°16'1217.7
2014-Nov-13 05:34N 40°46' E 014°01'4 0.4
2014-Nov-12 19:14N 40°45' E 013°56'0 0.1
2014-Nov-12 18:33N 40°45' E 013°56'1313.1
2014-Nov-12 17:33N 40°47' E 014°13'4 1.1
2014-Nov-12 14:29N 40°50' E 014°16'1617.0
2014-Nov-12 13:34N 40°45' E 013°57'1111.1
2014-Nov-12 12:34N 40°47' E 014°11'5 2.3
2014-Nov-12 10:16N 40°50' E 014°16'1216.7
2014-Nov-12 09:33N 40°46' E 014°02'4 4.3
2014-Nov-12 08:33N 40°45' E 013°56'0 0.0
2014-Nov-12 07:33N 40°45' E 013°56'0 0.0
2014-Nov-12 06:33N 40°45' E 013°56'0 0.0
2014-Nov-12 05:33N 40°45' E 013°56'0 0.0
2014-Nov-11 18:33N 40°45' E 013°56'0 0.0
2014-Nov-11 17:33N 40°45' E 013°56'0 0.0
2014-Nov-11 16:33N 40°45' E 013°56'0 0.0
2014-Nov-11 15:33N 40°45' E 013°56'0 0.0
2014-Nov-11 14:33N 40°45' E 013°56'0 0.0
2014-Nov-11 13:33N 40°45' E 013°56'1111.4
2014-Nov-11 12:34N 40°47' E 014°11'5 2.2
2014-Nov-11 10:14N 40°50' E 014°17'1218.0
2014-Nov-11 09:34N 40°46' E 014°02'4 4.2
2014-Nov-11 08:34N 40°45' E 013°56'2 2.0
2014-Nov-11 07:34N 40°46' E 013°59'1411.8
2014-Nov-11 06:20N 40°50' E 014°17'1316.8
2014-Nov-11 05:34N 40°46' E 014°00'3 0.3
2014-Nov-10 19:21N 40°45' E 013°56'0 0.0
2014-Nov-10 18:33N 40°45' E 013°56'1413.5
2014-Nov-10 17:33N 40°48' E 014°14'3 0.9
2014-Nov-10 14:31N 40°50' E 014°16'1616.4
2014-Nov-10 13:34N 40°45' E 013°56'1212.4
2014-Nov-10 12:33N 40°47' E 014°12'4 1.8
2014-Nov-10 10:13N 40°50' E 014°17'1218.3
2014-Nov-10 09:34N 40°46' E 014°02'4 4.2
2014-Nov-10 08:34N 40°45' E 013°56'2 2.0
2014-Nov-10 07:34N 40°46' E 013°59'1411.0
2014-Nov-10 06:15N 40°50' E 014°17'1318.4
2014-Nov-10 05:34N 40°46' E 014°01'4 0.3
2014-Nov-09 18:34N 40°45' E 013°56'1312.9
2014-Nov-09 17:33N 40°47' E 014°13'4 1.2
2014-Nov-09 14:28N 40°50' E 014°17'1617.8
2014-Nov-09 13:34N 40°45' E 013°56'1211.5
2014-Nov-09 12:33N 40°47' E 014°11'5 2.1
2014-Nov-09 10:14N 40°50' E 014°16'1217.6
2014-Nov-09 09:34N 40°46' E 014°02'4 4.1
2014-Nov-09 08:33N 40°45' E 013°56'2 0.1
2014-Nov-08 07:34N 40°46' E 013°59'1411.0
2014-Nov-08 06:15N 40°49' E 014°17'1217.4
2014-Nov-08 05:33N 40°46' E 014°02'4 0.4
2014-Nov-07 18:22N 40°45' E 013°56'0 0.0
2014-Nov-07 17:33N 40°45' E 013°56'0 0.0
2014-Nov-07 16:33N 40°45' E 013°56'0 0.0
2014-Nov-07 15:33N 40°45' E 013°56'0 0.0
2014-Nov-07 14:33N 40°45' E 013°56'0 0.0
2014-Nov-07 13:33N 40°45' E 013°56'0 0.0
2014-Nov-07 12:33N 40°45' E 013°56'0 0.0
2014-Nov-07 11:33N 40°45' E 013°56'0 0.0
2014-Nov-07 10:33N 40°45' E 013°56'0 0.0
2014-Nov-07 09:33N 40°45' E 013°56'0 0.0
2014-Nov-07 08:33N 40°45' E 013°56'0 0.0
2014-Nov-07 07:33N 40°45' E 013°56'0 0.0
2014-Nov-07 06:33N 40°45' E 013°56'0 0.0
2014-Nov-07 05:33N 40°45' E 013°56'0 0.0
2014-Nov-06 17:34N 40°45' E 013°56'0 0.0
2014-Nov-06 16:33N 40°45' E 013°56'0 0.0
2014-Nov-06 15:33N 40°45' E 013°56'0 0.0
2014-Nov-06 14:33N 40°45' E 013°56'0 0.0
2014-Nov-06 13:33N 40°45' E 013°56'0 0.0
2014-Nov-06 12:33N 40°45' E 013°56'0 0.0
2014-Nov-06 11:34N 40°45' E 013°56'0 0.0
2014-Nov-06 10:33N 40°45' E 013°56'0 0.0
2014-Nov-06 09:33N 40°45' E 013°56'0 0.0
2014-Nov-06 08:33N 40°45' E 013°56'4 4.2
2014-Nov-06 07:33N 40°46' E 014°02'12 9.2
2014-Nov-06 06:16N 40°50' E 014°17'1217.5
2014-Nov-06 05:34N 40°46' E 014°01'4 0.3
2014-Nov-05 17:34N 40°45' E 013°56'0 0.0
2014-Nov-05 16:33N 40°45' E 013°56'0 0.0
2014-Nov-05 15:34N 40°45' E 013°56'0 0.0
2014-Nov-05 14:34N 40°45' E 013°56'0 0.0
2014-Nov-05 13:34N 40°45' E 013°56'0 0.0
2014-Nov-05 12:33N 40°45' E 013°56'0 0.0
2014-Nov-05 11:34N 40°45' E 013°56'0 0.0
2014-Nov-05 10:34N 40°45' E 013°56'0 0.0
2014-Nov-05 09:34N 40°45' E 013°56'0 0.0
2014-Nov-05 08:34N 40°45' E 013°56'0 0.0
2014-Nov-05 07:34N 40°45' E 013°56'0 0.0
2014-Nov-05 06:33N 40°45' E 013°56'0 0.0
2014-Nov-05 05:34N 40°45' E 013°56'0 0.0
2014-Nov-04 12:03N 40°45' E 013°56'0 0.0
2014-Nov-04 11:33N 40°45' E 013°56'0 0.0
2014-Nov-04 10:33N 40°45' E 013°56'  

Dump ship's entire track history